sensor_id;sensor_type;location;lat;lon;timestamp;P1;durP1;ratioP1;P2;durP2;ratioP2
55146;SDS011;41039;49.830;23.988;2024-02-15T00:02:16;12.37;;;9.93;;
55146;SDS011;41039;49.830;23.988;2024-02-15T00:04:42;10.47;;;9.37;;
55146;SDS011;41039;49.830;23.988;2024-02-15T00:07:07;10.80;;;9.43;;
55146;SDS011;41039;49.830;23.988;2024-02-15T00:09:33;11.95;;;9.65;;
55146;SDS011;41039;49.830;23.988;2024-02-15T00:11:58;13.37;;;9.93;;
55146;SDS011;41039;49.830;23.988;2024-02-15T00:14:24;13.20;;;10.00;;
55146;SDS011;41039;49.830;23.988;2024-02-15T00:16:50;11.25;;;8.98;;
55146;SDS011;41039;49.830;23.988;2024-02-15T00:19:15;10.93;;;9.23;;
55146;SDS011;41039;49.830;23.988;2024-02-15T00:21:45;12.48;;;9.68;;
55146;SDS011;41039;49.830;23.988;2024-02-15T00:24:10;10.60;;;9.50;;
55146;SDS011;41039;49.830;23.988;2024-02-15T00:26:36;11.80;;;9.57;;
55146;SDS011;41039;49.830;23.988;2024-02-15T00:29:01;11.13;;;9.68;;
55146;SDS011;41039;49.830;23.988;2024-02-15T00:31:26;11.97;;;9.00;;
55146;SDS011;41039;49.830;23.988;2024-02-15T00:33:52;10.57;;;9.47;;
55146;SDS011;41039;49.830;23.988;2024-02-15T00:36:17;11.83;;;9.73;;
55146;SDS011;41039;49.830;23.988;2024-02-15T00:38:42;11.63;;;9.68;;
55146;SDS011;41039;49.830;23.988;2024-02-15T00:41:08;12.30;;;9.57;;
55146;SDS011;41039;49.830;23.988;2024-02-15T00:43:36;10.95;;;9.65;;
55146;SDS011;41039;49.830;23.988;2024-02-15T00:46:01;10.00;;;8.18;;
55146;SDS011;41039;49.830;23.988;2024-02-15T00:48:27;10.88;;;8.82;;
55146;SDS011;41039;49.830;23.988;2024-02-15T00:50:54;13.43;;;9.82;;
55146;SDS011;41039;49.830;23.988;2024-02-15T00:53:19;9.98;;;8.45;;
55146;SDS011;41039;49.830;23.988;2024-02-15T00:55:45;9.77;;;8.48;;
55146;SDS011;41039;49.830;23.988;2024-02-15T00:58:10;10.27;;;8.88;;
55146;SDS011;41039;49.830;23.988;2024-02-15T01:00:35;10.70;;;8.83;;
55146;SDS011;41039;49.830;23.988;2024-02-15T01:03:01;11.67;;;8.80;;
55146;SDS011;41039;49.830;23.988;2024-02-15T01:05:26;11.07;;;9.07;;
55146;SDS011;41039;49.830;23.988;2024-02-15T01:07:51;10.20;;;9.10;;
55146;SDS011;41039;49.830;23.988;2024-02-15T01:10:17;10.43;;;9.02;;
55146;SDS011;41039;49.830;23.988;2024-02-15T01:12:42;11.70;;;7.97;;
55146;SDS011;41039;49.830;23.988;2024-02-15T01:15:09;10.30;;;8.77;;
55146;SDS011;41039;49.830;23.988;2024-02-15T01:17:34;10.90;;;8.90;;
55146;SDS011;41039;49.830;23.988;2024-02-15T01:19:59;9.32;;;8.43;;
55146;SDS011;41039;49.830;23.988;2024-02-15T01:22:24;10.80;;;8.97;;
55146;SDS011;41039;49.830;23.988;2024-02-15T01:24:52;10.60;;;8.15;;
55146;SDS011;41039;49.830;23.988;2024-02-15T01:27:17;10.65;;;8.98;;
55146;SDS011;41039;49.830;23.988;2024-02-15T01:29:42;9.57;;;8.47;;
55146;SDS011;41039;49.830;23.988;2024-02-15T01:32:08;9.68;;;8.68;;
55146;SDS011;41039;49.830;23.988;2024-02-15T01:34:33;10.60;;;8.60;;
55146;SDS011;41039;49.830;23.988;2024-02-15T01:36:58;9.65;;;8.45;;
55146;SDS011;41039;49.830;23.988;2024-02-15T01:39:23;9.88;;;8.55;;
55146;SDS011;41039;49.830;23.988;2024-02-15T01:41:49;10.38;;;8.52;;
55146;SDS011;41039;49.830;23.988;2024-02-15T01:44:16;10.65;;;8.55;;
55146;SDS011;41039;49.830;23.988;2024-02-15T01:46:43;9.25;;;8.23;;
55146;SDS011;41039;49.830;23.988;2024-02-15T01:49:08;10.48;;;8.48;;
55146;SDS011;41039;49.830;23.988;2024-02-15T01:51:33;11.15;;;8.55;;
55146;SDS011;41039;49.830;23.988;2024-02-15T01:54:01;9.93;;;8.32;;
55146;SDS011;41039;49.830;23.988;2024-02-15T01:56:26;10.35;;;8.35;;
55146;SDS011;41039;49.830;23.988;2024-02-15T01:58:52;9.32;;;7.90;;
55146;SDS011;41039;49.830;23.988;2024-02-15T02:01:18;10.48;;;8.80;;
55146;SDS011;41039;49.830;23.988;2024-02-15T02:03:44;9.48;;;8.43;;
55146;SDS011;41039;49.830;23.988;2024-02-15T02:06:09;9.00;;;8.07;;
55146;SDS011;41039;49.830;23.988;2024-02-15T02:08:35;10.35;;;8.27;;
55146;SDS011;41039;49.830;23.988;2024-02-15T02:11:00;9.17;;;8.10;;
55146;SDS011;41039;49.830;23.988;2024-02-15T02:13:27;10.60;;;8.60;;
55146;SDS011;41039;49.830;23.988;2024-02-15T02:15:52;10.75;;;7.82;;
55146;SDS011;41039;49.830;23.988;2024-02-15T02:18:17;9.52;;;8.00;;
55146;SDS011;41039;49.830;23.988;2024-02-15T02:20:43;9.50;;;8.07;;
55146;SDS011;41039;49.830;23.988;2024-02-15T02:23:14;9.67;;;8.07;;
55146;SDS011;41039;49.830;23.988;2024-02-15T02:25:40;10.30;;;8.27;;
55146;SDS011;41039;49.830;23.988;2024-02-15T02:28:07;9.27;;;7.80;;
55146;SDS011;41039;49.830;23.988;2024-02-15T02:30:33;8.93;;;8.02;;
55146;SDS011;41039;49.830;23.988;2024-02-15T02:32:58;9.07;;;7.87;;
55146;SDS011;41039;49.830;23.988;2024-02-15T02:35:24;8.52;;;7.63;;
55146;SDS011;41039;49.830;23.988;2024-02-15T02:37:50;9.35;;;8.00;;
55146;SDS011;41039;49.830;23.988;2024-02-15T02:40:15;9.57;;;8.35;;
55146;SDS011;41039;49.830;23.988;2024-02-15T02:42:56;8.90;;;7.72;;
55146;SDS011;41039;49.830;23.988;2024-02-15T02:45:23;10.48;;;8.15;;
55146;SDS011;41039;49.830;23.988;2024-02-15T02:47:49;9.05;;;7.40;;
55146;SDS011;41039;49.830;23.988;2024-02-15T02:50:15;11.05;;;8.18;;
55146;SDS011;41039;49.830;23.988;2024-02-15T02:52:40;8.23;;;7.40;;
55146;SDS011;41039;49.830;23.988;2024-02-15T02:55:05;8.95;;;8.05;;
55146;SDS011;41039;49.830;23.988;2024-02-15T02:57:34;8.48;;;7.50;;
55146;SDS011;41039;49.830;23.988;2024-02-15T03:00:02;8.93;;;7.63;;
55146;SDS011;41039;49.830;23.988;2024-02-15T03:02:32;9.13;;;7.88;;
55146;SDS011;41039;49.830;23.988;2024-02-15T03:04:58;9.45;;;8.45;;
55146;SDS011;41039;49.830;23.988;2024-02-15T03:07:26;9.27;;;8.18;;
55146;SDS011;41039;49.830;23.988;2024-02-15T03:09:52;8.60;;;7.50;;
55146;SDS011;41039;49.830;23.988;2024-02-15T03:12:17;8.77;;;7.87;;
55146;SDS011;41039;49.830;23.988;2024-02-15T03:14:42;8.80;;;7.80;;
55146;SDS011;41039;49.830;23.988;2024-02-15T03:17:07;9.70;;;7.53;;
55146;SDS011;41039;49.830;23.988;2024-02-15T03:19:33;8.00;;;7.10;;
55146;SDS011;41039;49.830;23.988;2024-02-15T03:21:58;9.70;;;7.93;;
55146;SDS011;41039;49.830;23.988;2024-02-15T03:24:23;8.10;;;7.25;;
55146;SDS011;41039;49.830;23.988;2024-02-15T03:26:49;9.17;;;7.60;;
55146;SDS011;41039;49.830;23.988;2024-02-15T03:29:14;9.50;;;7.67;;
55146;SDS011;41039;49.830;23.988;2024-02-15T03:31:39;8.98;;;8.00;;
55146;SDS011;41039;49.830;23.988;2024-02-15T03:34:04;9.30;;;8.13;;
55146;SDS011;41039;49.830;23.988;2024-02-15T03:36:30;9.02;;;8.10;;
55146;SDS011;41039;49.830;23.988;2024-02-15T03:38:55;8.63;;;7.67;;
55146;SDS011;41039;49.830;23.988;2024-02-15T03:41:21;9.20;;;7.63;;
55146;SDS011;41039;49.830;23.988;2024-02-15T03:43:46;8.55;;;7.65;;
55146;SDS011;41039;49.830;23.988;2024-02-15T03:46:12;8.60;;;7.57;;
55146;SDS011;41039;49.830;23.988;2024-02-15T03:48:38;8.05;;;7.10;;
55146;SDS011;41039;49.830;23.988;2024-02-15T03:51:03;8.52;;;7.30;;
55146;SDS011;41039;49.830;23.988;2024-02-15T03:53:28;7.72;;;6.93;;
55146;SDS011;41039;49.830;23.988;2024-02-15T03:55:56;8.07;;;6.75;;
55146;SDS011;41039;49.830;23.988;2024-02-15T03:58:21;8.95;;;7.97;;
55146;SDS011;41039;49.830;23.988;2024-02-15T04:00:47;9.85;;;7.63;;
55146;SDS011;41039;49.830;23.988;2024-02-15T04:03:12;8.23;;;7.07;;
55146;SDS011;41039;49.830;23.988;2024-02-15T04:05:37;8.37;;;7.53;;
55146;SDS011;41039;49.830;23.988;2024-02-15T04:08:03;7.75;;;6.95;;
55146;SDS011;41039;49.830;23.988;2024-02-15T04:10:30;8.65;;;7.05;;
55146;SDS011;41039;49.830;23.988;2024-02-15T04:12:55;8.40;;;7.32;;
55146;SDS011;41039;49.830;23.988;2024-02-15T04:15:23;8.10;;;7.13;;
55146;SDS011;41039;49.830;23.988;2024-02-15T04:17:48;7.53;;;6.70;;
55146;SDS011;41039;49.830;23.988;2024-02-15T04:20:13;7.53;;;6.65;;
55146;SDS011;41039;49.830;23.988;2024-02-15T04:22:41;7.65;;;6.72;;
55146;SDS011;41039;49.830;23.988;2024-02-15T04:25:08;8.10;;;6.78;;
55146;SDS011;41039;49.830;23.988;2024-02-15T04:27:35;7.60;;;6.80;;
55146;SDS011;41039;49.830;23.988;2024-02-15T04:30:01;7.65;;;6.85;;
55146;SDS011;41039;49.830;23.988;2024-02-15T04:32:27;7.55;;;6.75;;
55146;SDS011;41039;49.830;23.988;2024-02-15T04:34:54;8.85;;;7.10;;
55146;SDS011;41039;49.830;23.988;2024-02-15T04:37:19;8.50;;;7.28;;
55146;SDS011;41039;49.830;23.988;2024-02-15T04:39:45;8.18;;;7.00;;
55146;SDS011;41039;49.830;23.988;2024-02-15T04:42:12;7.50;;;6.53;;
55146;SDS011;41039;49.830;23.988;2024-02-15T04:44:38;8.07;;;7.25;;
55146;SDS011;41039;49.830;23.988;2024-02-15T04:47:04;8.40;;;6.68;;
55146;SDS011;41039;49.830;23.988;2024-02-15T04:49:29;7.85;;;7.00;;
55146;SDS011;41039;49.830;23.988;2024-02-15T04:51:55;9.00;;;7.20;;
55146;SDS011;41039;49.830;23.988;2024-02-15T04:54:20;7.85;;;7.05;;
55146;SDS011;41039;49.830;23.988;2024-02-15T04:56:45;7.97;;;6.47;;
55146;SDS011;41039;49.830;23.988;2024-02-15T04:59:11;6.93;;;6.22;;
55146;SDS011;41039;49.830;23.988;2024-02-15T05:01:40;7.55;;;6.10;;
55146;SDS011;41039;49.830;23.988;2024-02-15T05:04:07;8.98;;;6.80;;
55146;SDS011;41039;49.830;23.988;2024-02-15T05:06:33;8.65;;;7.07;;
55146;SDS011;41039;49.830;23.988;2024-02-15T05:08:58;7.97;;;6.47;;
55146;SDS011;41039;49.830;23.988;2024-02-15T05:11:25;7.53;;;6.35;;
55146;SDS011;41039;49.830;23.988;2024-02-15T05:13:50;8.98;;;7.15;;
55146;SDS011;41039;49.830;23.988;2024-02-15T05:16:15;8.27;;;6.73;;
55146;SDS011;41039;49.830;23.988;2024-02-15T05:18:41;7.93;;;6.45;;
55146;SDS011;41039;49.830;23.988;2024-02-15T05:21:06;7.47;;;6.40;;
55146;SDS011;41039;49.830;23.988;2024-02-15T05:23:37;8.43;;;6.97;;
55146;SDS011;41039;49.830;23.988;2024-02-15T05:26:05;9.57;;;7.68;;
55146;SDS011;41039;49.830;23.988;2024-02-15T05:28:30;8.68;;;7.25;;
55146;SDS011;41039;49.830;23.988;2024-02-15T05:31:15;8.70;;;6.93;;
55146;SDS011;41039;49.830;23.988;2024-02-15T05:33:45;8.75;;;7.45;;
55146;SDS011;41039;49.830;23.988;2024-02-15T05:36:12;9.23;;;7.82;;
55146;SDS011;41039;49.830;23.988;2024-02-15T05:38:38;8.77;;;6.82;;
55146;SDS011;41039;49.830;23.988;2024-02-15T05:41:04;8.68;;;7.22;;
55146;SDS011;41039;49.830;23.988;2024-02-15T05:43:29;9.27;;;7.93;;
55146;SDS011;41039;49.830;23.988;2024-02-15T05:45:55;11.00;;;7.80;;
55146;SDS011;41039;49.830;23.988;2024-02-15T05:48:25;9.18;;;7.18;;
55146;SDS011;41039;49.830;23.988;2024-02-15T05:50:50;9.00;;;7.50;;
55146;SDS011;41039;49.830;23.988;2024-02-15T05:53:16;10.07;;;8.18;;
55146;SDS011;41039;49.830;23.988;2024-02-15T05:55:42;8.98;;;7.97;;
55146;SDS011;41039;49.830;23.988;2024-02-15T05:58:09;8.77;;;7.78;;
55146;SDS011;41039;49.830;23.988;2024-02-15T06:00:36;10.15;;;8.48;;
55146;SDS011;41039;49.830;23.988;2024-02-15T06:03:03;11.73;;;8.32;;
55146;SDS011;41039;49.830;23.988;2024-02-15T06:05:29;10.18;;;8.15;;
55146;SDS011;41039;49.830;23.988;2024-02-15T06:07:54;10.67;;;8.57;;
55146;SDS011;41039;49.830;23.988;2024-02-15T06:10:19;14.57;;;8.60;;
55146;SDS011;41039;49.830;23.988;2024-02-15T06:12:44;11.43;;;9.30;;
55146;SDS011;41039;49.830;23.988;2024-02-15T06:15:10;11.70;;;8.90;;
55146;SDS011;41039;49.830;23.988;2024-02-15T06:17:40;10.02;;;8.50;;
55146;SDS011;41039;49.830;23.988;2024-02-15T06:20:05;9.48;;;8.43;;
55146;SDS011;41039;49.830;23.988;2024-02-15T06:22:30;10.18;;;9.00;;
55146;SDS011;41039;49.830;23.988;2024-02-15T06:24:56;10.15;;;8.68;;
55146;SDS011;41039;49.830;23.988;2024-02-15T06:27:21;11.43;;;9.07;;
55146;SDS011;41039;49.830;23.988;2024-02-15T06:29:49;11.68;;;9.50;;
55146;SDS011;41039;49.830;23.988;2024-02-15T06:32:32;10.65;;;8.75;;
55146;SDS011;41039;49.830;23.988;2024-02-15T06:38:20;12.65;;;9.43;;
55146;SDS011;41039;49.830;23.988;2024-02-15T06:41:04;10.85;;;8.85;;
55146;SDS011;41039;49.830;23.988;2024-02-15T06:43:29;10.23;;;9.10;;
55146;SDS011;41039;49.830;23.988;2024-02-15T06:45:54;9.73;;;8.73;;
55146;SDS011;41039;49.830;23.988;2024-02-15T06:48:20;11.52;;;8.77;;
55146;SDS011;41039;49.830;23.988;2024-02-15T06:50:48;10.68;;;9.15;;
55146;SDS011;41039;49.830;23.988;2024-02-15T06:53:14;11.63;;;8.88;;
55146;SDS011;41039;49.830;23.988;2024-02-15T06:55:39;11.57;;;9.75;;
55146;SDS011;41039;49.830;23.988;2024-02-15T06:58:05;11.18;;;9.75;;
55146;SDS011;41039;49.830;23.988;2024-02-15T07:00:30;9.88;;;8.75;;
55146;SDS011;41039;49.830;23.988;2024-02-15T07:02:56;9.90;;;8.82;;
55146;SDS011;41039;49.830;23.988;2024-02-15T07:05:21;11.80;;;9.43;;
55146;SDS011;41039;49.830;23.988;2024-02-15T07:07:48;10.35;;;9.20;;
55146;SDS011;41039;49.830;23.988;2024-02-15T07:10:13;10.40;;;9.02;;
55146;SDS011;41039;49.830;23.988;2024-02-15T07:12:42;10.63;;;9.23;;
55146;SDS011;41039;49.830;23.988;2024-02-15T07:15:08;10.00;;;9.00;;
55146;SDS011;41039;49.830;23.988;2024-02-15T07:17:34;10.15;;;8.43;;
55146;SDS011;41039;49.830;23.988;2024-02-15T07:20:02;10.98;;;8.85;;
55146;SDS011;41039;49.830;23.988;2024-02-15T07:22:28;9.23;;;8.32;;
55146;SDS011;41039;49.830;23.988;2024-02-15T07:24:53;9.82;;;8.55;;
55146;SDS011;41039;49.830;23.988;2024-02-15T07:27:18;10.07;;;8.93;;
55146;SDS011;41039;49.830;23.988;2024-02-15T07:29:44;10.73;;;8.80;;
55146;SDS011;41039;49.830;23.988;2024-02-15T07:32:09;11.55;;;9.15;;
55146;SDS011;41039;49.830;23.988;2024-02-15T07:34:34;9.85;;;8.50;;
55146;SDS011;41039;49.830;23.988;2024-02-15T07:37:01;10.97;;;9.07;;
55146;SDS011;41039;49.830;23.988;2024-02-15T07:39:26;14.45;;;9.02;;
55146;SDS011;41039;49.830;23.988;2024-02-15T07:41:56;13.60;;;8.27;;
55146;SDS011;41039;49.830;23.988;2024-02-15T07:44:23;11.05;;;8.73;;
55146;SDS011;41039;49.830;23.988;2024-02-15T07:46:48;9.52;;;8.18;;
55146;SDS011;41039;49.830;23.988;2024-02-15T07:49:15;10.15;;;8.18;;
55146;SDS011;41039;49.830;23.988;2024-02-15T07:51:41;11.05;;;8.00;;
55146;SDS011;41039;49.830;23.988;2024-02-15T07:54:06;10.05;;;7.68;;
55146;SDS011;41039;49.830;23.988;2024-02-15T07:56:32;9.88;;;7.57;;
55146;SDS011;41039;49.830;23.988;2024-02-15T07:58:57;10.13;;;7.67;;
55146;SDS011;41039;49.830;23.988;2024-02-15T08:01:22;12.80;;;8.02;;
55146;SDS011;41039;49.830;23.988;2024-02-15T08:03:48;9.75;;;7.13;;
55146;SDS011;41039;49.830;23.988;2024-02-15T08:06:14;10.48;;;7.95;;
55146;SDS011;41039;49.830;23.988;2024-02-15T08:08:40;8.70;;;7.07;;
55146;SDS011;41039;49.830;23.988;2024-02-15T08:11:11;9.02;;;6.70;;
55146;SDS011;41039;49.830;23.988;2024-02-15T08:13:43;9.02;;;7.28;;
55146;SDS011;41039;49.830;23.988;2024-02-15T08:16:09;10.73;;;8.32;;
55146;SDS011;41039;49.830;23.988;2024-02-15T08:18:34;16.45;;;7.53;;
55146;SDS011;41039;49.830;23.988;2024-02-15T08:21:00;8.35;;;7.30;;
55146;SDS011;41039;49.830;23.988;2024-02-15T08:23:25;8.77;;;7.10;;
55146;SDS011;41039;49.830;23.988;2024-02-15T08:25:52;9.20;;;7.57;;
55146;SDS011;41039;49.830;23.988;2024-02-15T08:28:18;7.40;;;6.60;;
55146;SDS011;41039;49.830;23.988;2024-02-15T08:30:45;11.45;;;7.03;;
55146;SDS011;41039;49.830;23.988;2024-02-15T08:33:11;10.90;;;6.20;;
55146;SDS011;41039;49.830;23.988;2024-02-15T08:35:37;8.70;;;5.25;;
55146;SDS011;41039;49.830;23.988;2024-02-15T08:38:02;6.50;;;4.60;;
55146;SDS011;41039;49.830;23.988;2024-02-15T08:40:30;6.32;;;3.97;;
55146;SDS011;41039;49.830;23.988;2024-02-15T08:42:55;6.30;;;4.13;;
55146;SDS011;41039;49.830;23.988;2024-02-15T08:45:21;6.13;;;4.90;;
55146;SDS011;41039;49.830;23.988;2024-02-15T08:47:46;6.35;;;4.35;;
55146;SDS011;41039;49.830;23.988;2024-02-15T08:50:11;5.65;;;4.63;;
55146;SDS011;41039;49.830;23.988;2024-02-15T08:52:37;5.90;;;4.57;;
55146;SDS011;41039;49.830;23.988;2024-02-15T08:55:08;7.57;;;4.72;;
55146;SDS011;41039;49.830;23.988;2024-02-15T08:57:40;6.60;;;4.90;;
55146;SDS011;41039;49.830;23.988;2024-02-15T09:00:06;8.13;;;5.32;;
55146;SDS011;41039;49.830;23.988;2024-02-15T09:02:38;5.82;;;4.50;;
55146;SDS011;41039;49.830;23.988;2024-02-15T09:05:03;6.97;;;5.00;;
55146;SDS011;41039;49.830;23.988;2024-02-15T09:07:28;6.63;;;4.65;;
55146;SDS011;41039;49.830;23.988;2024-02-15T09:09:55;6.82;;;4.90;;
55146;SDS011;41039;49.830;23.988;2024-02-15T09:12:20;6.25;;;4.68;;
55146;SDS011;41039;49.830;23.988;2024-02-15T09:14:46;6.47;;;4.83;;
55146;SDS011;41039;49.830;23.988;2024-02-15T09:17:13;5.20;;;4.30;;
55146;SDS011;41039;49.830;23.988;2024-02-15T09:19:38;6.75;;;4.60;;
55146;SDS011;41039;49.830;23.988;2024-02-15T09:22:03;6.87;;;4.53;;
55146;SDS011;41039;49.830;23.988;2024-02-15T09:24:32;6.43;;;4.38;;
55146;SDS011;41039;49.830;23.988;2024-02-15T09:26:59;6.10;;;4.70;;
55146;SDS011;41039;49.830;23.988;2024-02-15T09:29:24;8.80;;;5.13;;
55146;SDS011;41039;49.830;23.988;2024-02-15T09:31:49;6.77;;;4.43;;
55146;SDS011;41039;49.830;23.988;2024-02-15T09:34:14;5.18;;;4.25;;
55146;SDS011;41039;49.830;23.988;2024-02-15T09:36:40;5.73;;;3.50;;
55146;SDS011;41039;49.830;23.988;2024-02-15T09:39:05;6.03;;;4.33;;
55146;SDS011;41039;49.830;23.988;2024-02-15T09:41:31;6.68;;;3.85;;
55146;SDS011;41039;49.830;23.988;2024-02-15T09:43:57;5.47;;;3.90;;
55146;SDS011;41039;49.830;23.988;2024-02-15T09:46:22;6.82;;;4.22;;
55146;SDS011;41039;49.830;23.988;2024-02-15T09:48:50;6.88;;;4.55;;
55146;SDS011;41039;49.830;23.988;2024-02-15T09:51:15;5.63;;;3.97;;
55146;SDS011;41039;49.830;23.988;2024-02-15T09:53:41;4.88;;;3.90;;
55146;SDS011;41039;49.830;23.988;2024-02-15T09:56:06;7.03;;;3.78;;
55146;SDS011;41039;49.830;23.988;2024-02-15T09:58:31;4.93;;;3.15;;
55146;SDS011;41039;49.830;23.988;2024-02-15T10:00:59;5.55;;;4.03;;
55146;SDS011;41039;49.830;23.988;2024-02-15T10:03:25;6.93;;;4.03;;
55146;SDS011;41039;49.830;23.988;2024-02-15T10:05:53;5.90;;;3.95;;
55146;SDS011;41039;49.830;23.988;2024-02-15T10:08:18;6.30;;;3.95;;
55146;SDS011;41039;49.830;23.988;2024-02-15T10:10:46;6.32;;;3.92;;
55146;SDS011;41039;49.830;23.988;2024-02-15T10:13:14;5.32;;;3.63;;
55146;SDS011;41039;49.830;23.988;2024-02-15T10:15:40;6.00;;;3.17;;
55146;SDS011;41039;49.830;23.988;2024-02-15T10:18:10;5.15;;;3.85;;
55146;SDS011;41039;49.830;23.988;2024-02-15T10:20:40;5.15;;;3.67;;
55146;SDS011;41039;49.830;23.988;2024-02-15T10:23:12;4.83;;;3.83;;
55146;SDS011;41039;49.830;23.988;2024-02-15T10:25:38;5.72;;;3.00;;
55146;SDS011;41039;49.830;23.988;2024-02-15T10:28:07;5.90;;;3.10;;
55146;SDS011;41039;49.830;23.988;2024-02-15T10:30:36;5.30;;;3.25;;
55146;SDS011;41039;49.830;23.988;2024-02-15T10:33:02;4.65;;;3.20;;
55146;SDS011;41039;49.830;23.988;2024-02-15T10:35:27;4.15;;;3.20;;
55146;SDS011;41039;49.830;23.988;2024-02-15T10:37:54;4.75;;;3.28;;
55146;SDS011;41039;49.830;23.988;2024-02-15T10:40:29;4.88;;;3.17;;
55146;SDS011;41039;49.830;23.988;2024-02-15T10:42:54;4.37;;;3.13;;
55146;SDS011;41039;49.830;23.988;2024-02-15T10:45:22;4.22;;;2.88;;
55146;SDS011;41039;49.830;23.988;2024-02-15T10:47:48;3.88;;;2.72;;
55146;SDS011;41039;49.830;23.988;2024-02-15T10:50:13;3.77;;;2.70;;
55146;SDS011;41039;49.830;23.988;2024-02-15T10:52:44;4.25;;;2.85;;
55146;SDS011;41039;49.830;23.988;2024-02-15T10:55:13;3.78;;;2.72;;
55146;SDS011;41039;49.830;23.988;2024-02-15T10:57:45;4.65;;;2.85;;
55146;SDS011;41039;49.830;23.988;2024-02-15T11:00:11;5.20;;;3.15;;
55146;SDS011;41039;49.830;23.988;2024-02-15T11:03:01;3.60;;;2.90;;
55146;SDS011;41039;49.830;23.988;2024-02-15T11:05:29;3.13;;;2.65;;
55146;SDS011;41039;49.830;23.988;2024-02-15T11:07:56;3.55;;;2.38;;
55146;SDS011;41039;49.830;23.988;2024-02-15T11:10:22;3.33;;;2.28;;
55146;SDS011;41039;49.830;23.988;2024-02-15T11:12:47;4.18;;;2.85;;
55146;SDS011;41039;49.830;23.988;2024-02-15T11:15:17;3.30;;;2.58;;
55146;SDS011;41039;49.830;23.988;2024-02-15T11:17:58;3.53;;;2.65;;
55146;SDS011;41039;49.830;23.988;2024-02-15T11:21:09;3.40;;;2.30;;
55146;SDS011;41039;49.830;23.988;2024-02-15T11:23:09;3.38;;;2.25;;
55146;SDS011;41039;49.830;23.988;2024-02-15T11:25:36;3.65;;;2.85;;
55146;SDS011;41039;49.830;23.988;2024-02-15T11:30:48;3.47;;;2.88;;
55146;SDS011;41039;49.830;23.988;2024-02-15T11:33:33;3.42;;;2.30;;
55146;SDS011;41039;49.830;23.988;2024-02-15T11:36:07;3.85;;;2.50;;
55146;SDS011;41039;49.830;23.988;2024-02-15T11:38:36;4.22;;;2.80;;
55146;SDS011;41039;49.830;23.988;2024-02-15T11:41:05;3.55;;;2.58;;
55146;SDS011;41039;49.830;23.988;2024-02-15T11:46:12;3.13;;;2.10;;
55146;SDS011;41039;49.830;23.988;2024-02-15T11:48:38;3.58;;;2.00;;
55146;SDS011;41039;49.830;23.988;2024-02-15T11:51:07;3.53;;;2.40;;
55146;SDS011;41039;49.830;23.988;2024-02-15T11:53:36;4.57;;;2.70;;
55146;SDS011;41039;49.830;23.988;2024-02-15T11:56:02;3.47;;;2.35;;
55146;SDS011;41039;49.830;23.988;2024-02-15T11:58:30;3.03;;;2.20;;
55146;SDS011;41039;49.830;23.988;2024-02-15T12:01:07;3.47;;;2.20;;
55146;SDS011;41039;49.830;23.988;2024-02-15T12:03:52;3.45;;;2.30;;
55146;SDS011;41039;49.830;23.988;2024-02-15T12:06:57;3.88;;;2.50;;
55146;SDS011;41039;49.830;23.988;2024-02-15T12:09:41;3.40;;;2.75;;
55146;SDS011;41039;49.830;23.988;2024-02-15T12:12:25;3.55;;;2.33;;
55146;SDS011;41039;49.830;23.988;2024-02-15T12:15:09;3.35;;;2.17;;
55146;SDS011;41039;49.830;23.988;2024-02-15T12:17:53;3.40;;;2.20;;
55146;SDS011;41039;49.830;23.988;2024-02-15T12:20:36;2.85;;;2.00;;
55146;SDS011;41039;49.830;23.988;2024-02-15T12:23:02;3.03;;;2.20;;
55146;SDS011;41039;49.830;23.988;2024-02-15T12:25:28;2.85;;;2.13;;
55146;SDS011;41039;49.830;23.988;2024-02-15T12:27:54;2.88;;;2.13;;
55146;SDS011;41039;49.830;23.988;2024-02-15T12:30:19;2.70;;;2.00;;
55146;SDS011;41039;49.830;23.988;2024-02-15T12:32:51;2.80;;;2.10;;
55146;SDS011;41039;49.830;23.988;2024-02-15T12:35:17;2.90;;;1.88;;
55146;SDS011;41039;49.830;23.988;2024-02-15T12:37:48;2.80;;;1.95;;
55146;SDS011;41039;49.830;23.988;2024-02-15T12:40:19;3.78;;;2.30;;
55146;SDS011;41039;49.830;23.988;2024-02-15T12:42:44;3.55;;;2.65;;
55146;SDS011;41039;49.830;23.988;2024-02-15T12:47:44;3.28;;;2.15;;
55146;SDS011;41039;49.830;23.988;2024-02-15T12:50:16;3.47;;;2.30;;
55146;SDS011;41039;49.830;23.988;2024-02-15T12:52:42;2.53;;;2.00;;
55146;SDS011;41039;49.830;23.988;2024-02-15T12:55:13;3.50;;;2.45;;
55146;SDS011;41039;49.830;23.988;2024-02-15T12:57:39;2.45;;;1.50;;
55146;SDS011;41039;49.830;23.988;2024-02-15T13:00:10;3.95;;;2.35;;
55146;SDS011;41039;49.830;23.988;2024-02-15T13:05:08;3.37;;;2.10;;
55146;SDS011;41039;49.830;23.988;2024-02-15T13:07:33;2.55;;;1.80;;
55146;SDS011;41039;49.830;23.988;2024-02-15T13:09:59;3.90;;;2.05;;
55146;SDS011;41039;49.830;23.988;2024-02-15T13:12:25;3.33;;;1.90;;
55146;SDS011;41039;49.830;23.988;2024-02-15T13:14:50;3.95;;;2.00;;
55146;SDS011;41039;49.830;23.988;2024-02-15T13:17:15;3.53;;;1.70;;
55146;SDS011;41039;49.830;23.988;2024-02-15T13:19:45;2.78;;;2.03;;
55146;SDS011;41039;49.830;23.988;2024-02-15T13:22:10;3.58;;;1.90;;
55146;SDS011;41039;49.830;23.988;2024-02-15T13:24:35;3.27;;;1.70;;
55146;SDS011;41039;49.830;23.988;2024-02-15T13:27:03;3.42;;;1.98;;
55146;SDS011;41039;49.830;23.988;2024-02-15T13:29:29;3.00;;;1.83;;
55146;SDS011;41039;49.830;23.988;2024-02-15T13:31:54;2.87;;;1.70;;
55146;SDS011;41039;49.830;23.988;2024-02-15T13:34:19;2.77;;;1.50;;
55146;SDS011;41039;49.830;23.988;2024-02-15T13:36:46;2.72;;;1.95;;
55146;SDS011;41039;49.830;23.988;2024-02-15T13:39:11;3.85;;;1.63;;
55146;SDS011;41039;49.830;23.988;2024-02-15T13:41:36;2.60;;;1.60;;
55146;SDS011;41039;49.830;23.988;2024-02-15T13:44:02;3.47;;;1.73;;
55146;SDS011;41039;49.830;23.988;2024-02-15T13:46:27;2.97;;;2.10;;
55146;SDS011;41039;49.830;23.988;2024-02-15T13:48:52;3.00;;;1.60;;
55146;SDS011;41039;49.830;23.988;2024-02-15T13:51:17;4.43;;;1.83;;
55146;SDS011;41039;49.830;23.988;2024-02-15T13:53:43;2.50;;;1.67;;
55146;SDS011;41039;49.830;23.988;2024-02-15T13:56:09;2.73;;;1.93;;
55146;SDS011;41039;49.830;23.988;2024-02-15T13:58:34;2.63;;;1.90;;
55146;SDS011;41039;49.830;23.988;2024-02-15T14:00:59;2.50;;;1.70;;
55146;SDS011;41039;49.830;23.988;2024-02-15T14:03:28;3.47;;;1.90;;
55146;SDS011;41039;49.830;23.988;2024-02-15T14:05:54;3.17;;;1.80;;
55146;SDS011;41039;49.830;23.988;2024-02-15T14:08:19;2.13;;;1.43;;
55146;SDS011;41039;49.830;23.988;2024-02-15T14:10:45;2.88;;;1.85;;
55146;SDS011;41039;49.830;23.988;2024-02-15T14:13:10;3.72;;;1.45;;
55146;SDS011;41039;49.830;23.988;2024-02-15T14:15:38;2.45;;;1.58;;
55146;SDS011;41039;49.830;23.988;2024-02-15T14:18:04;2.42;;;1.50;;
55146;SDS011;41039;49.830;23.988;2024-02-15T14:20:29;3.08;;;1.65;;
55146;SDS011;41039;49.830;23.988;2024-02-15T14:22:55;2.87;;;1.90;;
55146;SDS011;41039;49.830;23.988;2024-02-15T14:25:23;2.58;;;1.70;;
55146;SDS011;41039;49.830;23.988;2024-02-15T14:27:48;3.67;;;1.77;;
55146;SDS011;41039;49.830;23.988;2024-02-15T14:30:14;3.60;;;1.55;;
55146;SDS011;41039;49.830;23.988;2024-02-15T14:32:57;4.45;;;1.90;;
55146;SDS011;41039;49.830;23.988;2024-02-15T14:35:32;3.05;;;1.90;;
55146;SDS011;41039;49.830;23.988;2024-02-15T14:38:07;3.30;;;2.10;;
55146;SDS011;41039;49.830;23.988;2024-02-15T14:40:45;3.08;;;1.73;;
55146;SDS011;41039;49.830;23.988;2024-02-15T14:43:12;2.55;;;1.75;;
55146;SDS011;41039;49.830;23.988;2024-02-15T14:45:39;3.03;;;1.73;;